createdAt,value
2023-02-13T00:04:45.055Z,39.08
2023-02-13T00:09:47.832Z,32.25
2023-02-13T00:14:50.650Z,42.15
2023-02-13T00:19:54.869Z,35.45
2023-02-13T00:24:57.679Z,38.38
2023-02-13T00:30:00.426Z,36.53
2023-02-13T00:35:04.678Z,32.92
2023-02-13T00:40:08.840Z,30.20
2023-02-13T00:45:11.577Z,38.05
2023-02-13T00:50:15.695Z,37.30
2023-02-13T00:55:18.791Z,33.90
2023-02-13T01:00:22.091Z,31.63
2023-02-13T01:05:27.992Z,35.50
2023-02-13T01:10:30.808Z,31.85
2023-02-13T01:15:34.464Z,35.90
2023-02-13T01:20:38.536Z,34.58
2023-02-13T01:25:42.270Z,32.75
2023-02-13T01:30:45.055Z,33.58
2023-02-13T01:35:49.290Z,37.40
2023-02-13T01:40:54.498Z,39.03
2023-02-13T01:45:59.468Z,35.05
2023-02-13T01:51:08.468Z,34.78
2023-02-13T01:56:16.119Z,37.83
2023-02-13T02:01:19.094Z,35.40
2023-02-13T02:06:27.107Z,34.17
2023-02-13T02:11:36.652Z,30.83
2023-02-13T02:16:40.520Z,34.47
2023-02-13T02:22:08.131Z,32.30
2023-02-13T02:27:57.764Z,36.22
2023-02-13T02:33:13.763Z,31.85
2023-02-13T02:38:33.378Z,36.05
2023-02-13T02:43:50.940Z,35.58
2023-02-13T02:49:21.589Z,33.55
2023-02-13T02:54:47.756Z,35.10
2023-02-13T03:00:11.244Z,37.63
2023-02-13T03:05:54.500Z,31.67
2023-02-13T03:11:15.037Z,36.35
2023-02-13T03:16:39.752Z,36.67
2023-02-13T03:22:07.008Z,40.28
2023-02-13T03:27:12.838Z,37.15
2023-02-13T03:32:26.254Z,35.90
2023-02-13T03:37:54.394Z,36.83
2023-02-13T03:43:06.054Z,38.20
2023-02-13T03:48:31.308Z,36.55
2023-02-13T03:53:39.437Z,35.20
2023-02-13T03:59:04.116Z,31.77
2023-02-13T04:04:10.868Z,32.08
2023-02-13T04:09:16.996Z,33.60
2023-02-13T04:14:24.504Z,35.77
2023-02-13T04:19:28.368Z,30.38
2023-02-13T04:24:32.457Z,33.50
2023-02-13T04:29:35.225Z,30.02
2023-02-13T04:34:38.372Z,36.30
2023-02-13T04:39:42.466Z,33.58
2023-02-13T04:44:45.302Z,29.13
2023-02-13T04:49:48.127Z,33.17
2023-02-13T04:54:52.390Z,33.55
2023-02-13T04:59:55.574Z,29.10
2023-02-13T05:04:58.364Z,32.58
2023-02-13T05:10:02.427Z,30.92
2023-02-13T05:15:05.784Z,29.85
2023-02-13T05:20:09.308Z,37.25
2023-02-13T05:25:13.400Z,33.70
2023-02-13T05:30:16.706Z,40.28
2023-02-13T05:35:21.037Z,32.10
2023-02-13T05:40:25.911Z,35.55
2023-02-13T05:45:28.718Z,34.70
2023-02-13T05:50:31.499Z,30.55
2023-02-13T05:55:35.676Z,37.33
2023-02-13T06:00:38.465Z,32.22
2023-02-13T06:05:41.671Z,34.75
2023-02-13T06:10:45.847Z,33.30
2023-02-13T06:15:48.887Z,41.33
2023-02-13T06:20:52.009Z,38.85
2023-02-13T06:25:56.176Z,31.27
2023-02-13T06:30:59.812Z,33.40
2023-02-13T06:36:03.387Z,35.55
2023-02-13T06:41:10.157Z,40.42
2023-02-13T06:46:13.638Z,34.65
2023-02-13T06:51:16.485Z,37.50
2023-02-13T06:56:20.673Z,38.08
2023-02-13T07:01:23.761Z,49.58
2023-02-13T07:06:26.649Z,35.08
2023-02-13T07:11:31.053Z,51.53
2023-02-13T07:16:34.187Z,38.30
2023-02-13T07:21:38.063Z,40.33
2023-02-13T07:26:43.117Z,33.13
2023-02-13T07:31:45.940Z,37.47
2023-02-13T07:36:48.680Z,36.75
2023-02-13T07:41:53.574Z,38.05
2023-02-13T07:47:02.044Z,40.42
2023-02-13T07:52:05.586Z,46.42
2023-02-13T07:57:09.943Z,41.83
2023-02-13T08:02:15.096Z,44.45
2023-02-13T08:07:18.863Z,44.78
2023-02-13T08:12:23.410Z,36.45
2023-02-13T08:17:26.834Z,36.78
2023-02-13T08:22:30.001Z,39.78
2023-02-13T08:27:35.089Z,39.70
2023-02-13T08:32:53.137Z,40.75
2023-02-13T08:37:56.850Z,39.35
2023-02-13T08:43:05.586Z,38.08
2023-02-13T08:48:08.563Z,41.33
2023-02-13T08:53:11.342Z,36.25
2023-02-13T08:58:15.486Z,39.63
2023-02-13T09:03:19.159Z,38.00
2023-02-13T09:08:24.311Z,34.95
2023-02-13T09:13:29.652Z,34.50
2023-02-13T09:18:32.941Z,33.35
2023-02-13T09:23:37.537Z,41.67
2023-02-13T09:28:42.170Z,36.00
2023-02-13T09:33:46.210Z,33.42
2023-02-13T09:38:52.735Z,33.10
2023-02-13T09:44:00.246Z,32.93
2023-02-13T09:49:08.761Z,34.33
2023-02-13T09:54:19.197Z,55.13
2023-02-13T09:59:37.812Z,42.15
2023-02-13T10:04:49.075Z,29.85
2023-02-13T10:10:01.840Z,30.85
2023-02-13T10:15:18.944Z,23.45
2023-02-13T10:20:30.572Z,24.60
2023-02-13T10:25:47.688Z,23.02
2023-02-13T10:36:03.899Z,27.33
2023-02-13T10:41:23.308Z,21.30
2023-02-13T10:46:36.122Z,20.60
2023-02-13T10:51:46.373Z,19.20
2023-02-13T10:56:58.071Z,33.38
2023-02-13T11:02:10.463Z,18.90
2023-02-13T11:07:16.148Z,19.60
2023-02-13T11:12:26.143Z,16.33
2023-02-13T11:17:32.992Z,21.45
2023-02-13T11:22:39.251Z,15.13
2023-02-13T11:27:42.130Z,17.97
2023-02-13T11:32:59.038Z,15.75
2023-02-13T11:38:15.222Z,10.52
2023-02-13T11:43:21.008Z,13.52
2023-02-13T11:48:25.139Z,9.55
2023-02-13T11:53:32.515Z,15.70
2023-02-13T11:58:35.597Z,15.23
2023-02-13T12:03:42.161Z,14.40
2023-02-13T12:08:47.813Z,16.92
2023-02-13T12:13:52.541Z,11.20
2023-02-13T12:19:01.417Z,13.35
2023-02-13T12:24:12.059Z,9.80
2023-02-13T12:29:34.258Z,11.52
2023-02-13T12:35:25.482Z,8.68
2023-02-13T12:40:59.323Z,11.45
2023-02-13T12:46:07.634Z,8.02
2023-02-13T12:51:28.589Z,10.13
2023-02-13T12:56:52.318Z,9.25
2023-02-13T13:02:23.280Z,10.52
2023-02-13T13:07:54.402Z,17.50
2023-02-13T13:13:10.237Z,14.63
2023-02-13T13:18:23.396Z,15.00
2023-02-13T13:23:32.790Z,19.38
2023-02-13T13:28:42.492Z,13.52
2023-02-13T13:33:47.846Z,14.48
2023-02-13T13:39:00.599Z,16.00
2023-02-13T13:44:19.200Z,12.52
2023-02-13T13:49:36.534Z,12.95
2023-02-13T13:54:39.370Z,12.00
2023-02-13T14:00:25.999Z,14.18
2023-02-13T14:05:31.503Z,11.38
2023-02-13T14:11:06.952Z,13.55
2023-02-13T14:16:13.265Z,14.63
2023-02-13T14:21:23.942Z,12.03
2023-02-13T14:26:33.367Z,9.75
2023-02-13T14:31:40.274Z,14.48
2023-02-13T14:36:46.485Z,10.23
2023-02-13T14:41:59.923Z,9.18
2023-02-13T14:47:07.737Z,11.07
2023-02-13T14:52:19.399Z,11.43
2023-02-13T14:57:26.886Z,17.05
2023-02-13T15:02:34.770Z,12.25
2023-02-13T15:07:44.322Z,9.45
2023-02-13T15:12:47.264Z,10.20
2023-02-13T15:17:52.184Z,18.42
2023-02-13T15:22:55.460Z,7.40
2023-02-13T15:28:00.391Z,8.77
2023-02-13T15:33:16.800Z,10.48
2023-02-13T15:38:21.715Z,9.43
2023-02-13T15:43:35.413Z,6.57
2023-02-13T15:48:39.504Z,22.77
2023-02-13T15:53:51.974Z,13.27
2023-02-13T15:58:56.667Z,13.32
2023-02-13T16:04:05.341Z,21.38
2023-02-13T16:09:08.652Z,24.45
2023-02-13T16:14:18.568Z,17.88
2023-02-13T16:19:33.700Z,16.13
2023-02-13T16:24:37.456Z,10.98
2023-02-13T16:29:49.362Z,13.80
2023-02-13T16:34:56.954Z,19.35
2023-02-13T16:40:34.250Z,23.35
2023-02-13T16:45:37.406Z,30.08
2023-02-13T16:50:42.260Z,19.02
2023-02-13T16:55:45.230Z,32.47
2023-02-13T17:00:51.572Z,36.45
2023-02-13T17:05:56.202Z,34.70
2023-02-13T17:11:07.434Z,17.90
2023-02-13T17:16:11.198Z,22.27
2023-02-13T17:21:15.332Z,16.50
2023-02-13T17:26:18.090Z,24.85
2023-02-13T17:31:21.108Z,25.77
2023-02-13T17:36:26.517Z,48.30
2023-02-13T17:41:29.786Z,42.80
2023-02-13T17:46:32.640Z,37.72
2023-02-13T17:51:39.956Z,20.50
2023-02-13T17:56:42.743Z,14.63
2023-02-13T18:01:45.484Z,14.07
2023-02-13T18:06:52.897Z,12.50
2023-02-13T18:12:05.105Z,16.10
2023-02-13T18:17:08.952Z,18.55
2023-02-13T18:22:14.340Z,13.80
2023-02-13T18:27:17.892Z,22.55
2023-02-13T18:32:20.667Z,16.00
2023-02-13T18:37:24.856Z,24.27
2023-02-13T18:42:28.091Z,27.63
2023-02-13T18:47:30.832Z,22.08
2023-02-13T18:52:35.175Z,19.15
2023-02-13T18:57:38.386Z,19.80
2023-02-13T19:02:41.240Z,25.25
2023-02-13T19:07:45.984Z,29.45
2023-02-13T19:12:49.462Z,21.42
2023-02-13T19:17:52.514Z,21.92
2023-02-13T19:22:56.626Z,20.58
2023-02-13T19:27:59.385Z,15.65
2023-02-13T19:33:02.098Z,17.63
2023-02-13T19:38:06.273Z,27.05
2023-02-13T19:43:09.162Z,22.75
2023-02-13T19:48:12.060Z,17.25
2023-02-13T19:53:17.462Z,27.67
2023-02-13T19:58:20.275Z,29.23
2023-02-13T20:03:23.185Z,25.58
2023-02-13T20:08:27.358Z,22.55
2023-02-13T20:13:31.984Z,21.25
2023-02-13T20:18:35.544Z,24.23
2023-02-13T20:23:39.864Z,27.30
2023-02-13T20:28:44.997Z,29.25
2023-02-13T20:33:48.464Z,25.95
2023-02-13T20:38:55.061Z,23.40
2023-02-13T20:43:59.528Z,23.77
2023-02-13T20:49:02.847Z,21.63
2023-02-13T20:54:07.231Z,25.35
2023-02-13T20:59:09.997Z,29.30
2023-02-13T21:04:14.774Z,27.63
2023-02-13T21:09:19.067Z,26.40
2023-02-13T21:14:21.956Z,20.15
2023-02-13T21:19:24.798Z,26.67
2023-02-13T21:24:28.940Z,19.23
2023-02-13T21:29:32.735Z,19.60
2023-02-13T21:34:36.146Z,29.88
2023-02-13T21:39:40.553Z,40.20
2023-02-13T21:44:43.406Z,27.23
2023-02-13T21:49:46.116Z,28.10
2023-02-13T21:54:50.432Z,25.65
2023-02-13T21:59:53.199Z,34.70
2023-02-13T22:04:55.951Z,30.58
2023-02-13T22:09:59.982Z,28.80
2023-02-13T22:15:02.785Z,33.25
2023-02-13T22:20:06.851Z,29.48
2023-02-13T22:25:11.400Z,30.17
2023-02-13T22:30:15.178Z,31.45
2023-02-13T22:35:18.024Z,29.73
2023-02-13T22:40:22.296Z,27.42
2023-02-13T22:45:25.066Z,27.27
2023-02-13T22:50:27.906Z,28.23
2023-02-13T22:55:33.551Z,32.42
2023-02-13T23:00:36.470Z,33.20
2023-02-13T23:05:40.700Z,28.40
2023-02-13T23:11:04.984Z,30.17
2023-02-13T23:16:13.423Z,28.50
2023-02-13T23:21:16.331Z,31.40
2023-02-13T23:26:20.531Z,29.73
2023-02-13T23:31:23.534Z,31.38
2023-02-13T23:36:26.486Z,25.67
2023-02-13T23:41:30.642Z,28.73
2023-02-13T23:46:33.465Z,26.85
2023-02-13T23:51:36.573Z,24.27
2023-02-13T23:56:40.666Z,23.23
